sensor_id;sensor_type;location;lat;lon;timestamp;pressure;altitude;pressure_sealevel;temperature;humidity
23303;BME280;11820;48.738;9.092;2023-04-21T00:01:55;95910.28;;;5.77;100.00
23303;BME280;11820;48.738;9.092;2023-04-21T00:04:20;95917.84;;;5.78;100.00
23303;BME280;11820;48.738;9.092;2023-04-21T00:06:45;95914.13;;;5.81;100.00
23303;BME280;11820;48.738;9.092;2023-04-21T00:09:11;95909.63;;;5.83;100.00
23303;BME280;11820;48.738;9.092;2023-04-21T00:11:36;95906.25;;;5.82;100.00
23303;BME280;11820;48.738;9.092;2023-04-21T00:14:02;95901.94;;;5.83;100.00
23303;BME280;11820;48.738;9.092;2023-04-21T00:16:27;95895.22;;;5.82;100.00
23303;BME280;11820;48.738;9.092;2023-04-21T00:18:52;95898.75;;;5.81;100.00
23303;BME280;11820;48.738;9.092;2023-04-21T00:21:18;95898.44;;;5.76;100.00
23303;BME280;11820;48.738;9.092;2023-04-21T00:23:43;95897.47;;;5.77;100.00
23303;BME280;11820;48.738;9.092;2023-04-21T00:26:08;95901.97;;;5.75;100.00
23303;BME280;11820;48.738;9.092;2023-04-21T00:28:34;95902.91;;;5.74;100.00
23303;BME280;11820;48.738;9.092;2023-04-21T00:30:59;95900.19;;;5.75;100.00
23303;BME280;11820;48.738;9.092;2023-04-21T00:33:25;95892.66;;;5.74;100.00
23303;BME280;11820;48.738;9.092;2023-04-21T00:35:50;95888.69;;;5.71;100.00
23303;BME280;11820;48.738;9.092;2023-04-21T00:38:18;95886.63;;;5.67;100.00
23303;BME280;11820;48.738;9.092;2023-04-21T00:40:43;95888.94;;;5.62;100.00
23303;BME280;11820;48.738;9.092;2023-04-21T00:43:09;95884.41;;;5.64;100.00
23303;BME280;11820;48.738;9.092;2023-04-21T00:45:34;95879.13;;;5.65;100.00
23303;BME280;11820;48.738;9.092;2023-04-21T00:48:00;95875.75;;;5.65;100.00
23303;BME280;11820;48.738;9.092;2023-04-21T00:50:25;95883.06;;;5.53;100.00
23303;BME280;11820;48.738;9.092;2023-04-21T00:52:51;95881.66;;;5.51;100.00
23303;BME280;11820;48.738;9.092;2023-04-21T00:55:16;95879.72;;;5.53;100.00
23303;BME280;11820;48.738;9.092;2023-04-21T00:57:42;95882.56;;;5.58;100.00
23303;BME280;11820;48.738;9.092;2023-04-21T01:00:08;95881.31;;;5.54;100.00
23303;BME280;11820;48.738;9.092;2023-04-21T01:02:35;95883.19;;;5.60;100.00
23303;BME280;11820;48.738;9.092;2023-04-21T01:05:04;95876.81;;;5.56;100.00
23303;BME280;11820;48.738;9.092;2023-04-21T01:07:31;95869.47;;;5.53;100.00
23303;BME280;11820;48.738;9.092;2023-04-21T01:09:56;95865.19;;;5.45;100.00
23303;BME280;11820;48.738;9.092;2023-04-21T01:12:22;95870.94;;;5.25;100.00
23303;BME280;11820;48.738;9.092;2023-04-21T01:14:47;95869.56;;;5.37;100.00
23303;BME280;11820;48.738;9.092;2023-04-21T01:17:12;95864.78;;;5.34;100.00
23303;BME280;11820;48.738;9.092;2023-04-21T01:19:40;95864.84;;;5.26;100.00
23303;BME280;11820;48.738;9.092;2023-04-21T01:22:10;95866.25;;;5.06;100.00
23303;BME280;11820;48.738;9.092;2023-04-21T01:24:42;95869.78;;;5.05;100.00
23303;BME280;11820;48.738;9.092;2023-04-21T01:27:09;95869.59;;;5.06;100.00
23303;BME280;11820;48.738;9.092;2023-04-21T01:29:36;95871.19;;;5.07;100.00
23303;BME280;11820;48.738;9.092;2023-04-21T01:32:10;95872.38;;;4.97;100.00
23303;BME280;11820;48.738;9.092;2023-04-21T01:34:37;95872.22;;;4.98;100.00
23303;BME280;11820;48.738;9.092;2023-04-21T01:37:02;95869.31;;;5.01;100.00
23303;BME280;11820;48.738;9.092;2023-04-21T01:39:28;95882.00;;;4.95;100.00
23303;BME280;11820;48.738;9.092;2023-04-21T01:41:55;95878.78;;;5.01;100.00
23303;BME280;11820;48.738;9.092;2023-04-21T01:44:23;95879.84;;;5.06;100.00
23303;BME280;11820;48.738;9.092;2023-04-21T01:46:48;95881.03;;;4.96;100.00
23303;BME280;11820;48.738;9.092;2023-04-21T01:49:14;95888.41;;;4.99;100.00
23303;BME280;11820;48.738;9.092;2023-04-21T01:51:39;95882.94;;;5.02;100.00
23303;BME280;11820;48.738;9.092;2023-04-21T01:54:05;95884.34;;;5.04;100.00
23303;BME280;11820;48.738;9.092;2023-04-21T01:56:30;95874.09;;;5.04;100.00
23303;BME280;11820;48.738;9.092;2023-04-21T01:58:55;95869.50;;;5.00;100.00
23303;BME280;11820;48.738;9.092;2023-04-21T02:01:20;95868.19;;;5.04;100.00
23303;BME280;11820;48.738;9.092;2023-04-21T02:03:46;95866.13;;;4.99;100.00
23303;BME280;11820;48.738;9.092;2023-04-21T02:06:11;95867.25;;;4.97;100.00
23303;BME280;11820;48.738;9.092;2023-04-21T02:08:38;95879.78;;;4.92;100.00
23303;BME280;11820;48.738;9.092;2023-04-21T02:11:03;95881.41;;;4.85;100.00
23303;BME280;11820;48.738;9.092;2023-04-21T02:13:28;95877.59;;;4.81;100.00
23303;BME280;11820;48.738;9.092;2023-04-21T02:15:54;95877.94;;;4.78;100.00
23303;BME280;11820;48.738;9.092;2023-04-21T02:18:19;95878.66;;;4.56;100.00
23303;BME280;11820;48.738;9.092;2023-04-21T02:20:45;95871.97;;;4.55;100.00
23303;BME280;11820;48.738;9.092;2023-04-21T02:23:11;95875.66;;;4.45;100.00
23303;BME280;11820;48.738;9.092;2023-04-21T02:25:36;95861.25;;;4.52;100.00
23303;BME280;11820;48.738;9.092;2023-04-21T02:28:01;95858.72;;;4.44;100.00
23303;BME280;11820;48.738;9.092;2023-04-21T02:30:27;95862.25;;;4.43;100.00
23303;BME280;11820;48.738;9.092;2023-04-21T02:32:52;95867.22;;;4.36;100.00
23303;BME280;11820;48.738;9.092;2023-04-21T02:35:17;95870.78;;;4.27;100.00
23303;BME280;11820;48.738;9.092;2023-04-21T02:37:43;95879.91;;;4.22;100.00
23303;BME280;11820;48.738;9.092;2023-04-21T02:40:08;95881.38;;;4.08;100.00
23303;BME280;11820;48.738;9.092;2023-04-21T02:42:34;95883.00;;;4.01;100.00
23303;BME280;11820;48.738;9.092;2023-04-21T02:44:59;95870.78;;;4.27;100.00
23303;BME280;11820;48.738;9.092;2023-04-21T02:47:25;95873.63;;;4.32;100.00
23303;BME280;11820;48.738;9.092;2023-04-21T02:49:50;95879.88;;;4.38;100.00
23303;BME280;11820;48.738;9.092;2023-04-21T02:52:15;95881.59;;;4.37;100.00
23303;BME280;11820;48.738;9.092;2023-04-21T02:54:41;95887.66;;;4.52;100.00
23303;BME280;11820;48.738;9.092;2023-04-21T02:57:06;95882.34;;;4.62;100.00
23303;BME280;11820;48.738;9.092;2023-04-21T02:59:31;95876.06;;;4.64;100.00
23303;BME280;11820;48.738;9.092;2023-04-21T03:01:57;95864.22;;;4.63;100.00
23303;BME280;11820;48.738;9.092;2023-04-21T03:04:22;95872.41;;;4.59;100.00
23303;BME280;11820;48.738;9.092;2023-04-21T03:06:49;95872.59;;;4.57;100.00
23303;BME280;11820;48.738;9.092;2023-04-21T03:09:15;95857.28;;;4.49;100.00
23303;BME280;11820;48.738;9.092;2023-04-21T03:11:40;95857.63;;;4.38;100.00
23303;BME280;11820;48.738;9.092;2023-04-21T03:14:05;95847.41;;;4.30;100.00
23303;BME280;11820;48.738;9.092;2023-04-21T03:16:31;95844.09;;;4.22;100.00
23303;BME280;11820;48.738;9.092;2023-04-21T03:18:56;95849.56;;;4.11;100.00
23303;BME280;11820;48.738;9.092;2023-04-21T03:21:21;95853.09;;;4.02;100.00
23303;BME280;11820;48.738;9.092;2023-04-21T03:23:47;95861.91;;;3.99;100.00
23303;BME280;11820;48.738;9.092;2023-04-21T03:26:12;95860.09;;;4.08;100.00
23303;BME280;11820;48.738;9.092;2023-04-21T03:28:37;95855.44;;;4.19;100.00
23303;BME280;11820;48.738;9.092;2023-04-21T03:31:03;95850.16;;;4.21;100.00
23303;BME280;11820;48.738;9.092;2023-04-21T03:33:28;95862.19;;;4.12;100.00
23303;BME280;11820;48.738;9.092;2023-04-21T03:35:53;95865.88;;;4.10;100.00
23303;BME280;11820;48.738;9.092;2023-04-21T03:38:18;95858.03;;;4.11;100.00
23303;BME280;11820;48.738;9.092;2023-04-21T03:40:44;95865.88;;;4.02;100.00
23303;BME280;11820;48.738;9.092;2023-04-21T03:43:09;95848.13;;;4.08;100.00
23303;BME280;11820;48.738;9.092;2023-04-21T03:45:35;95844.56;;;4.25;100.00
23303;BME280;11820;48.738;9.092;2023-04-21T03:48:00;95846.00;;;4.20;100.00
23303;BME280;11820;48.738;9.092;2023-04-21T03:50:25;95853.53;;;4.21;100.00
23303;BME280;11820;48.738;9.092;2023-04-21T03:52:50;95849.16;;;4.30;100.00
23303;BME280;11820;48.738;9.092;2023-04-21T03:55:16;95850.00;;;4.14;100.00
23303;BME280;11820;48.738;9.092;2023-04-21T03:57:41;95855.81;;;4.00;100.00
23303;BME280;11820;48.738;9.092;2023-04-21T04:00:08;95861.38;;;4.04;100.00
23303;BME280;11820;48.738;9.092;2023-04-21T04:02:36;95853.84;;;4.18;100.00
23303;BME280;11820;48.738;9.092;2023-04-21T04:05:03;95848.41;;;4.21;100.00
23303;BME280;11820;48.738;9.092;2023-04-21T04:07:30;95848.19;;;4.31;100.00
23303;BME280;11820;48.738;9.092;2023-04-21T04:09:55;95851.53;;;4.39;100.00
23303;BME280;11820;48.738;9.092;2023-04-21T04:12:21;95852.47;;;4.46;100.00
23303;BME280;11820;48.738;9.092;2023-04-21T04:14:46;95855.69;;;4.48;100.00
23303;BME280;11820;48.738;9.092;2023-04-21T04:17:11;95857.38;;;4.56;100.00
23303;BME280;11820;48.738;9.092;2023-04-21T04:19:36;95861.56;;;4.49;100.00
23303;BME280;11820;48.738;9.092;2023-04-21T04:22:02;95850.56;;;4.48;100.00
23303;BME280;11820;48.738;9.092;2023-04-21T04:24:27;95858.72;;;4.44;100.00
23303;BME280;11820;48.738;9.092;2023-04-21T04:26:52;95862.09;;;4.36;100.00
23303;BME280;11820;48.738;9.092;2023-04-21T04:29:22;95862.41;;;4.41;100.00
23303;BME280;11820;48.738;9.092;2023-04-21T04:31:49;95870.22;;;4.48;100.00
23303;BME280;11820;48.738;9.092;2023-04-21T04:34:14;95864.56;;;4.60;100.00
23303;BME280;11820;48.738;9.092;2023-04-21T04:36:40;95864.19;;;4.71;100.00
23303;BME280;11820;48.738;9.092;2023-04-21T04:39:06;95858.91;;;4.72;100.00
23303;BME280;11820;48.738;9.092;2023-04-21T04:41:32;95854.69;;;4.79;100.00
23303;BME280;11820;48.738;9.092;2023-04-21T04:43:58;95850.84;;;4.83;100.00
23303;BME280;11820;48.738;9.092;2023-04-21T04:46:24;95853.25;;;4.85;100.00
23303;BME280;11820;48.738;9.092;2023-04-21T04:48:50;95862.47;;;4.94;100.00
23303;BME280;11820;48.738;9.092;2023-04-21T04:51:15;95857.66;;;4.99;100.00
23303;BME280;11820;48.738;9.092;2023-04-21T04:53:41;95865.16;;;5.00;100.00
23303;BME280;11820;48.738;9.092;2023-04-21T04:56:06;95855.72;;;5.01;100.00
23303;BME280;11820;48.738;9.092;2023-04-21T04:58:32;95864.94;;;5.10;100.00
23303;BME280;11820;48.738;9.092;2023-04-21T05:00:57;95864.78;;;5.11;100.00
23303;BME280;11820;48.738;9.092;2023-04-21T05:03:22;95875.81;;;5.12;100.00
23303;BME280;11820;48.738;9.092;2023-04-21T05:05:48;95872.41;;;5.19;100.00
23303;BME280;11820;48.738;9.092;2023-04-21T05:08:13;95875.13;;;5.18;100.00
23303;BME280;11820;48.738;9.092;2023-04-21T05:10:38;95870.94;;;5.25;100.00
23303;BME280;11820;48.738;9.092;2023-04-21T05:13:03;95882.78;;;5.26;100.00
23303;BME280;11820;48.738;9.092;2023-04-21T05:15:29;95884.38;;;5.27;100.00
23303;BME280;11820;48.738;9.092;2023-04-21T05:17:54;95888.81;;;5.33;100.00
23303;BME280;11820;48.738;9.092;2023-04-21T05:20:20;95891.38;;;5.10;100.00
23303;BME280;11820;48.738;9.092;2023-04-21T05:22:45;95890.16;;;5.21;100.00
23303;BME280;11820;48.738;9.092;2023-04-21T05:25:11;95895.88;;;5.31;100.00
23303;BME280;11820;48.738;9.092;2023-04-21T05:27:40;95900.31;;;5.37;100.00
23303;BME280;11820;48.738;9.092;2023-04-21T05:30:06;95893.84;;;5.49;100.00
23303;BME280;11820;48.738;9.092;2023-04-21T05:32:32;95903.75;;;5.52;100.00
23303;BME280;11820;48.738;9.092;2023-04-21T05:34:57;95901.47;;;5.57;100.00
23303;BME280;11820;48.738;9.092;2023-04-21T05:37:24;95905.97;;;5.55;100.00
23303;BME280;11820;48.738;9.092;2023-04-21T05:39:50;95913.25;;;5.66;100.00
23303;BME280;11820;48.738;9.092;2023-04-21T05:42:16;95911.44;;;5.52;100.00
23303;BME280;11820;48.738;9.092;2023-04-21T05:44:42;95912.16;;;5.60;100.00
23303;BME280;11820;48.738;9.092;2023-04-21T05:47:07;95897.25;;;5.64;100.00
23303;BME280;11820;48.738;9.092;2023-04-21T05:49:33;95898.56;;;5.60;100.00
23303;BME280;11820;48.738;9.092;2023-04-21T05:51:58;95906.59;;;5.57;100.00
23303;BME280;11820;48.738;9.092;2023-04-21T05:54:24;95901.19;;;5.52;100.00
23303;BME280;11820;48.738;9.092;2023-04-21T05:56:49;95898.09;;;5.56;100.00
23303;BME280;11820;48.738;9.092;2023-04-21T05:59:15;95882.47;;;5.66;100.00
23303;BME280;11820;48.738;9.092;2023-04-21T06:01:42;95881.16;;;5.70;100.00
23303;BME280;11820;48.738;9.092;2023-04-21T06:04:08;95880.03;;;5.72;100.00
23303;BME280;11820;48.738;9.092;2023-04-21T06:06:33;95881.63;;;5.73;100.00
23303;BME280;11820;48.738;9.092;2023-04-21T06:08:59;95886.41;;;5.76;100.00
23303;BME280;11820;48.738;9.092;2023-04-21T06:11:25;95881.69;;;5.88;100.00
23303;BME280;11820;48.738;9.092;2023-04-21T06:13:50;95861.63;;;5.91;100.00
23303;BME280;11820;48.738;9.092;2023-04-21T06:16:17;95865.66;;;5.86;100.00
23303;BME280;11820;48.738;9.092;2023-04-21T06:18:43;95867.03;;;5.96;100.00
23303;BME280;11820;48.738;9.092;2023-04-21T06:21:09;95868.16;;;5.94;100.00
23303;BME280;11820;48.738;9.092;2023-04-21T06:23:34;95875.78;;;6.02;100.00
23303;BME280;11820;48.738;9.092;2023-04-21T06:26:04;95883.41;;;6.10;100.00
23303;BME280;11820;48.738;9.092;2023-04-21T06:28:31;95882.34;;;6.19;100.00
23303;BME280;11820;48.738;9.092;2023-04-21T06:30:58;95887.13;;;6.22;100.00
23303;BME280;11820;48.738;9.092;2023-04-21T06:33:23;95884.84;;;6.27;100.00
23303;BME280;11820;48.738;9.092;2023-04-21T06:35:49;95885.28;;;6.30;100.00
23303;BME280;11820;48.738;9.092;2023-04-21T06:38:14;95876.34;;;6.40;100.00
23303;BME280;11820;48.738;9.092;2023-04-21T06:40:40;95876.34;;;6.40;100.00
23303;BME280;11820;48.738;9.092;2023-04-21T06:43:05;95866.94;;;6.47;100.00
23303;BME280;11820;48.738;9.092;2023-04-21T06:45:30;95872.06;;;6.47;100.00
23303;BME280;11820;48.738;9.092;2023-04-21T06:47:56;95870.69;;;6.45;100.00
23303;BME280;11820;48.738;9.092;2023-04-21T06:50:21;95882.34;;;6.47;100.00
23303;BME280;11820;48.738;9.092;2023-04-21T06:52:46;95884.75;;;6.49;100.00
23303;BME280;11820;48.738;9.092;2023-04-21T06:55:12;95879.63;;;6.49;100.00
23303;BME280;11820;48.738;9.092;2023-04-21T06:57:37;95877.66;;;6.51;100.00
23303;BME280;11820;48.738;9.092;2023-04-21T07:00:04;95865.81;;;6.50;100.00
23303;BME280;11820;48.738;9.092;2023-04-21T07:02:29;95870.31;;;6.48;100.00
23303;BME280;11820;48.738;9.092;2023-04-21T07:04:55;95868.88;;;6.45;100.00
23303;BME280;11820;48.738;9.092;2023-04-21T07:07:20;95865.72;;;6.43;100.00
23303;BME280;11820;48.738;9.092;2023-04-21T07:09:46;95870.94;;;6.50;100.00
23303;BME280;11820;48.738;9.092;2023-04-21T07:12:12;95868.53;;;6.63;100.00
23303;BME280;11820;48.738;9.092;2023-04-21T07:14:37;95870.41;;;6.69;100.00
23303;BME280;11820;48.738;9.092;2023-04-21T07:17:03;95864.66;;;6.67;100.00
23303;BME280;11820;48.738;9.092;2023-04-21T07:19:28;95869.59;;;6.68;100.00
23303;BME280;11820;48.738;9.092;2023-04-21T07:21:53;95868.69;;;6.76;100.00
23303;BME280;11820;48.738;9.092;2023-04-21T07:24:18;95873.56;;;6.85;100.00
23303;BME280;11820;48.738;9.092;2023-04-21T07:26:44;95873.97;;;6.89;100.00
23303;BME280;11820;48.738;9.092;2023-04-21T07:29:09;95864.75;;;6.94;100.00
23303;BME280;11820;48.738;9.092;2023-04-21T07:31:35;95862.09;;;7.02;100.00
23303;BME280;11820;48.738;9.092;2023-04-21T07:34:00;95861.16;;;7.10;100.00
23303;BME280;11820;48.738;9.092;2023-04-21T07:36:25;95861.59;;;7.13;100.00
23303;BME280;11820;48.738;9.092;2023-04-21T07:38:52;95857.94;;;7.22;100.00
23303;BME280;11820;48.738;9.092;2023-04-21T07:41:17;95861.72;;;7.26;100.00
23303;BME280;11820;48.738;9.092;2023-04-21T07:43:43;95852.09;;;7.28;100.00
23303;BME280;11820;48.738;9.092;2023-04-21T07:46:09;95855.69;;;7.34;100.00
23303;BME280;11820;48.738;9.092;2023-04-21T07:48:34;95856.00;;;7.45;100.00
23303;BME280;11820;48.738;9.092;2023-04-21T07:51:00;95856.66;;;7.54;100.00
23303;BME280;11820;48.738;9.092;2023-04-21T07:53:27;95860.38;;;7.51;100.00
23303;BME280;11820;48.738;9.092;2023-04-21T07:55:52;95855.81;;;7.47;100.00
23303;BME280;11820;48.738;9.092;2023-04-21T07:58:19;95865.72;;;7.50;100.00
23303;BME280;11820;48.738;9.092;2023-04-21T08:00:44;95855.44;;;7.50;100.00
23303;BME280;11820;48.738;9.092;2023-04-21T08:03:10;95850.59;;;7.61;100.00
23303;BME280;11820;48.738;9.092;2023-04-21T08:05:35;95848.19;;;7.81;100.00
23303;BME280;11820;48.738;9.092;2023-04-21T08:08:00;95849.72;;;7.75;100.00
23303;BME280;11820;48.738;9.092;2023-04-21T08:10:26;95847.75;;;7.77;100.00
23303;BME280;11820;48.738;9.092;2023-04-21T08:12:51;95844.91;;;7.93;100.00
23303;BME280;11820;48.738;9.092;2023-04-21T08:15:17;95849.41;;;7.85;100.00
23303;BME280;11820;48.738;9.092;2023-04-21T08:17:42;95839.22;;;7.97;100.00
23303;BME280;11820;48.738;9.092;2023-04-21T08:20:08;95838.63;;;8.02;100.00
23303;BME280;11820;48.738;9.092;2023-04-21T08:22:33;95841.31;;;8.15;100.00
23303;BME280;11820;48.738;9.092;2023-04-21T08:25:01;95838.97;;;8.20;100.00
23303;BME280;11820;48.738;9.092;2023-04-21T08:27:27;95841.97;;;8.23;100.00
23303;BME280;11820;48.738;9.092;2023-04-21T08:29:52;95838.00;;;8.21;100.00
23303;BME280;11820;48.738;9.092;2023-04-21T08:32:17;95842.75;;;8.17;100.00
23303;BME280;11820;48.738;9.092;2023-04-21T08:34:48;95845.31;;;8.17;100.00
23303;BME280;11820;48.738;9.092;2023-04-21T08:37:14;95835.13;;;8.37;100.00
23303;BME280;11820;48.738;9.092;2023-04-21T08:39:39;95829.00;;;8.38;100.00
23303;BME280;11820;48.738;9.092;2023-04-21T08:42:06;95833.53;;;8.36;100.00
23303;BME280;11820;48.738;9.092;2023-04-21T08:44:32;95835.72;;;8.39;100.00
23303;BME280;11820;48.738;9.092;2023-04-21T08:46:58;95829.00;;;8.38;100.00
23303;BME280;11820;48.738;9.092;2023-04-21T08:49:25;95842.47;;;8.40;100.00
23303;BME280;11820;48.738;9.092;2023-04-21T08:51:53;95836.16;;;8.42;100.00
23303;BME280;11820;48.738;9.092;2023-04-21T08:54:19;95835.25;;;8.63;100.00
23303;BME280;11820;48.738;9.092;2023-04-21T08:56:46;95844.44;;;8.78;100.00
23303;BME280;11820;48.738;9.092;2023-04-21T08:59:12;95836.16;;;8.96;100.00
23303;BME280;11820;48.738;9.092;2023-04-21T09:04:30;95835.44;;;9.15;100.00
23303;BME280;11820;48.738;9.092;2023-04-21T09:06:56;95837.84;;;9.36;100.00
23303;BME280;11820;48.738;9.092;2023-04-21T09:09:21;95841.78;;;9.19;100.00
23303;BME280;11820;48.738;9.092;2023-04-21T09:11:56;95840.44;;;9.36;100.00
23303;BME280;11820;48.738;9.092;2023-04-21T09:14:33;95834.06;;;9.38;100.00
23303;BME280;11820;48.738;9.092;2023-04-21T09:17:00;95830.13;;;9.49;100.00
23303;BME280;11820;48.738;9.092;2023-04-21T09:19:27;95823.56;;;9.40;100.00
23303;BME280;11820;48.738;9.092;2023-04-21T09:21:52;95826.13;;;9.33;100.00
23303;BME280;11820;48.738;9.092;2023-04-21T09:24:17;95817.03;;;9.44;100.00
23303;BME280;11820;48.738;9.092;2023-04-21T09:26:49;95832.31;;;9.52;100.00
23303;BME280;11820;48.738;9.092;2023-04-21T09:29:14;95835.69;;;9.52;100.00
23303;BME280;11820;48.738;9.092;2023-04-21T09:31:39;95834.50;;;9.67;100.00
23303;BME280;11820;48.738;9.092;2023-04-21T09:34:17;95831.16;;;9.86;100.00
23303;BME280;11820;48.738;9.092;2023-04-21T09:36:44;95825.16;;;9.92;100.00
23303;BME280;11820;48.738;9.092;2023-04-21T09:39:10;95826.75;;;10.06;100.00
23303;BME280;11820;48.738;9.092;2023-04-21T09:41:35;95822.00;;;10.03;100.00
23303;BME280;11820;48.738;9.092;2023-04-21T09:44:01;95826.56;;;10.14;100.00
23303;BME280;11820;48.738;9.092;2023-04-21T09:46:31;95830.53;;;10.17;100.00
23303;BME280;11820;48.738;9.092;2023-04-21T09:48:59;95827.94;;;10.23;100.00
23303;BME280;11820;48.738;9.092;2023-04-21T09:51:25;95819.00;;;10.19;100.00
23303;BME280;11820;48.738;9.092;2023-04-21T09:53:53;95821.53;;;10.39;100.00
23303;BME280;11820;48.738;9.092;2023-04-21T09:56:23;95816.34;;;10.45;100.00
23303;BME280;11820;48.738;9.092;2023-04-21T09:58:53;95817.47;;;10.69;100.00
23303;BME280;11820;48.738;9.092;2023-04-21T10:01:19;95815.41;;;10.90;100.00
23303;BME280;11820;48.738;9.092;2023-04-21T10:03:46;95801.78;;;10.64;100.00
23303;BME280;11820;48.738;9.092;2023-04-21T10:06:13;95798.63;;;10.99;100.00
23303;BME280;11820;48.738;9.092;2023-04-21T10:08:39;95798.47;;;11.25;100.00
23303;BME280;11820;48.738;9.092;2023-04-21T10:11:05;95796.16;;;11.17;100.00
23303;BME280;11820;48.738;9.092;2023-04-21T10:13:31;95797.47;;;11.26;100.00
23303;BME280;11820;48.738;9.092;2023-04-21T10:16:01;95798.75;;;11.17;100.00
23303;BME280;11820;48.738;9.092;2023-04-21T10:18:27;95801.66;;;11.27;100.00
23303;BME280;11820;48.738;9.092;2023-04-21T10:21:06;95793.47;;;11.61;100.00
23303;BME280;11820;48.738;9.092;2023-04-21T10:23:45;95802.84;;;11.86;100.00
23303;BME280;11820;48.738;9.092;2023-04-21T10:26:19;95797.22;;;11.89;100.00
23303;BME280;11820;48.738;9.092;2023-04-21T10:28:59;95800.97;;;11.93;100.00
23303;BME280;11820;48.738;9.092;2023-04-21T10:31:31;95796.59;;;11.94;100.00
23303;BME280;11820;48.738;9.092;2023-04-21T10:36:33;95788.56;;;12.20;100.00
23303;BME280;11820;48.738;9.092;2023-04-21T10:39:03;95794.25;;;12.46;100.00
23303;BME280;11820;48.738;9.092;2023-04-21T10:41:34;95790.09;;;12.45;100.00
23303;BME280;11820;48.738;9.092;2023-04-21T10:49:27;95777.25;;;12.68;100.00
23303;BME280;11820;48.738;9.092;2023-04-21T10:54:26;95776.19;;;12.94;100.00
23303;BME280;11820;48.738;9.092;2023-04-21T10:56:53;95779.59;;;13.05;100.00
23303;BME280;11820;48.738;9.092;2023-04-21T10:59:19;95773.53;;;13.11;100.00
23303;BME280;11820;48.738;9.092;2023-04-21T11:01:44;95774.94;;;13.25;100.00
23303;BME280;11820;48.738;9.092;2023-04-21T11:04:18;95775.47;;;13.16;100.00
23303;BME280;11820;48.738;9.092;2023-04-21T11:09:32;95776.16;;;13.64;100.00
23303;BME280;11820;48.738;9.092;2023-04-21T11:12:01;95773.44;;;13.70;100.00
23303;BME280;11820;48.738;9.092;2023-04-21T11:14:28;95781.34;;;13.75;100.00
23303;BME280;11820;48.738;9.092;2023-04-21T11:16:54;95763.06;;;14.16;100.00
23303;BME280;11820;48.738;9.092;2023-04-21T11:19:19;95770.53;;;14.01;100.00
23303;BME280;11820;48.738;9.092;2023-04-21T11:21:48;95777.97;;;13.86;100.00
23303;BME280;11820;48.738;9.092;2023-04-21T11:24:14;95762.84;;;14.29;100.00
23303;BME280;11820;48.738;9.092;2023-04-21T11:26:39;95768.84;;;14.30;100.00
23303;BME280;11820;48.738;9.092;2023-04-21T11:29:07;95771.00;;;14.21;100.00
23303;BME280;11820;48.738;9.092;2023-04-21T11:31:34;95752.78;;;14.33;100.00
23303;BME280;11820;48.738;9.092;2023-04-21T11:34:01;95751.72;;;14.57;100.00
23303;BME280;11820;48.738;9.092;2023-04-21T11:36:32;95753.09;;;14.75;100.00
23303;BME280;11820;48.738;9.092;2023-04-21T11:38:57;95761.03;;;14.80;100.00
23303;BME280;11820;48.738;9.092;2023-04-21T11:41:24;95756.69;;;14.58;100.00
23303;BME280;11820;48.738;9.092;2023-04-21T11:43:50;95750.81;;;14.90;100.00
23303;BME280;11820;48.738;9.092;2023-04-21T11:46:21;95746.19;;;15.37;100.00
23303;BME280;11820;48.738;9.092;2023-04-21T11:48:57;95749.38;;;15.72;100.00
23303;BME280;11820;48.738;9.092;2023-04-21T11:51:22;95752.34;;;15.47;100.00
23303;BME280;11820;48.738;9.092;2023-04-21T11:53:47;95756.31;;;15.50;100.00
23303;BME280;11820;48.738;9.092;2023-04-21T11:56:16;95752.91;;;15.66;100.00
23303;BME280;11820;48.738;9.092;2023-04-21T11:58:43;95739.31;;;16.13;100.00
23303;BME280;11820;48.738;9.092;2023-04-21T12:01:10;95745.56;;;16.33;100.00
23303;BME280;11820;48.738;9.092;2023-04-21T12:03:35;95740.94;;;16.19;100.00
23303;BME280;11820;48.738;9.092;2023-04-21T12:06:00;95736.66;;;16.94;100.00
23303;BME280;11820;48.738;9.092;2023-04-21T12:08:30;95738.16;;;17.11;100.00
23303;BME280;11820;48.738;9.092;2023-04-21T12:10:56;95725.38;;;16.88;100.00
23303;BME280;11820;48.738;9.092;2023-04-21T12:13:26;95741.63;;;16.95;100.00
23303;BME280;11820;48.738;9.092;2023-04-21T12:15:52;95736.63;;;17.15;100.00
23303;BME280;11820;48.738;9.092;2023-04-21T12:18:17;95729.59;;;17.74;100.00
23303;BME280;11820;48.738;9.092;2023-04-21T12:20:50;95719.75;;;18.27;100.00
23303;BME280;11820;48.738;9.092;2023-04-21T12:23:16;95713.78;;;20.32;100.00
23303;BME280;11820;48.738;9.092;2023-04-21T12:25:41;95699.38;;;23.16;100.00
23303;BME280;11820;48.738;9.092;2023-04-21T12:28:07;95698.84;;;25.08;88.66
23303;BME280;11820;48.738;9.092;2023-04-21T12:30:33;95699.63;;;24.95;74.26
23303;BME280;11820;48.738;9.092;2023-04-21T12:32:59;95697.56;;;23.11;72.45
23303;BME280;11820;48.738;9.092;2023-04-21T12:35:24;95706.34;;;21.13;77.11
23303;BME280;11820;48.738;9.092;2023-04-21T12:37:50;95699.41;;;20.83;84.23
23303;BME280;11820;48.738;9.092;2023-04-21T12:40:16;95700.69;;;19.97;84.10
23303;BME280;11820;48.738;9.092;2023-04-21T12:42:41;95697.00;;;20.13;91.78
23303;BME280;11820;48.738;9.092;2023-04-21T12:45:07;95683.28;;;20.36;91.89
23303;BME280;11820;48.738;9.092;2023-04-21T12:47:33;95684.78;;;21.11;89.69
23303;BME280;11820;48.738;9.092;2023-04-21T12:49:58;95677.09;;;23.03;84.52
23303;BME280;11820;48.738;9.092;2023-04-21T12:52:24;95677.03;;;26.13;69.67
23303;BME280;11820;48.738;9.092;2023-04-21T12:54:49;95673.91;;;28.82;56.72
23303;BME280;11820;48.738;9.092;2023-04-21T12:57:14;95683.91;;;29.14;52.14
23303;BME280;11820;48.738;9.092;2023-04-21T12:59:40;95686.22;;;25.85;56.77
23303;BME280;11820;48.738;9.092;2023-04-21T13:02:05;95696.78;;;22.69;64.03
23303;BME280;11820;48.738;9.092;2023-04-21T13:04:31;95677.63;;;22.40;64.46
23303;BME280;11820;48.738;9.092;2023-04-21T13:06:56;95684.66;;;22.21;62.48
23303;BME280;11820;48.738;9.092;2023-04-21T13:09:21;95675.94;;;22.72;66.66